sensor_id;sensor_type;location;lat;lon;timestamp;temperature;humidity
25092;DHT22;13082;52.374;4.946;2023-02-15T00:01:10;7.00;99.90
25092;DHT22;13082;52.374;4.946;2023-02-15T00:03:36;7.00;99.90
25092;DHT22;13082;52.374;4.946;2023-02-15T00:06:03;7.00;99.90
25092;DHT22;13082;52.374;4.946;2023-02-15T00:08:29;6.90;99.90
25092;DHT22;13082;52.374;4.946;2023-02-15T00:11:13;6.90;99.90
25092;DHT22;13082;52.374;4.946;2023-02-15T00:13:38;6.80;99.90
25092;DHT22;13082;52.374;4.946;2023-02-15T00:16:09;6.80;99.90
25092;DHT22;13082;52.374;4.946;2023-02-15T00:18:35;6.70;99.90
25092;DHT22;13082;52.374;4.946;2023-02-15T00:21:06;6.70;99.90
25092;DHT22;13082;52.374;4.946;2023-02-15T00:23:31;6.60;99.90
25092;DHT22;13082;52.374;4.946;2023-02-15T00:26:08;6.50;99.90
25092;DHT22;13082;52.374;4.946;2023-02-15T00:28:34;6.50;99.90
25092;DHT22;13082;52.374;4.946;2023-02-15T00:31:11;6.50;99.90
25092;DHT22;13082;52.374;4.946;2023-02-15T00:33:38;6.50;99.90
25092;DHT22;13082;52.374;4.946;2023-02-15T00:36:06;6.50;99.90
25092;DHT22;13082;52.374;4.946;2023-02-15T00:38:32;6.50;99.90
25092;DHT22;13082;52.374;4.946;2023-02-15T00:40:59;6.50;99.90
25092;DHT22;13082;52.374;4.946;2023-02-15T00:43:26;6.50;99.90
25092;DHT22;13082;52.374;4.946;2023-02-15T00:45:52;6.50;99.90
25092;DHT22;13082;52.374;4.946;2023-02-15T00:48:19;6.60;99.90
25092;DHT22;13082;52.374;4.946;2023-02-15T00:50:46;6.70;99.90
25092;DHT22;13082;52.374;4.946;2023-02-15T00:53:12;6.70;99.90
25092;DHT22;13082;52.374;4.946;2023-02-15T00:55:38;6.80;99.90
25092;DHT22;13082;52.374;4.946;2023-02-15T00:58:05;6.80;99.90
25092;DHT22;13082;52.374;4.946;2023-02-15T01:00:31;6.80;99.90
25092;DHT22;13082;52.374;4.946;2023-02-15T01:02:56;6.70;99.90
25092;DHT22;13082;52.374;4.946;2023-02-15T01:05:22;6.70;99.90
25092;DHT22;13082;52.374;4.946;2023-02-15T01:07:47;6.70;99.90
25092;DHT22;13082;52.374;4.946;2023-02-15T01:10:13;6.60;99.90
25092;DHT22;13082;52.374;4.946;2023-02-15T01:12:39;6.60;99.90
25092;DHT22;13082;52.374;4.946;2023-02-15T01:15:05;6.60;99.90
25092;DHT22;13082;52.374;4.946;2023-02-15T01:17:31;6.40;99.90
25092;DHT22;13082;52.374;4.946;2023-02-15T01:19:56;6.40;99.90
25092;DHT22;13082;52.374;4.946;2023-02-15T01:22:22;6.40;99.90
25092;DHT22;13082;52.374;4.946;2023-02-15T01:24:49;6.50;99.90
25092;DHT22;13082;52.374;4.946;2023-02-15T01:27:15;6.50;99.90
25092;DHT22;13082;52.374;4.946;2023-02-15T01:29:41;6.60;99.90
25092;DHT22;13082;52.374;4.946;2023-02-15T01:32:06;6.70;99.90
25092;DHT22;13082;52.374;4.946;2023-02-15T01:34:32;6.60;99.90
25092;DHT22;13082;52.374;4.946;2023-02-15T01:36:58;6.50;99.90
25092;DHT22;13082;52.374;4.946;2023-02-15T01:39:23;6.50;99.90
25092;DHT22;13082;52.374;4.946;2023-02-15T01:41:49;6.50;99.90
25092;DHT22;13082;52.374;4.946;2023-02-15T01:44:49;6.40;99.90
25092;DHT22;13082;52.374;4.946;2023-02-15T01:47:20;6.50;99.90
25092;DHT22;13082;52.374;4.946;2023-02-15T01:49:48;6.50;99.90
25092;DHT22;13082;52.374;4.946;2023-02-15T01:52:17;6.60;99.90
25092;DHT22;13082;52.374;4.946;2023-02-15T01:54:45;6.60;99.90
25092;DHT22;13082;52.374;4.946;2023-02-15T01:57:15;6.60;99.90
25092;DHT22;13082;52.374;4.946;2023-02-15T01:59:43;6.60;99.90
25092;DHT22;13082;52.374;4.946;2023-02-15T02:02:13;6.60;99.90
25092;DHT22;13082;52.374;4.946;2023-02-15T02:04:51;6.50;99.90
25092;DHT22;13082;52.374;4.946;2023-02-15T02:07:19;6.40;99.90
25092;DHT22;13082;52.374;4.946;2023-02-15T02:09:46;6.40;99.90
25092;DHT22;13082;52.374;4.946;2023-02-15T02:12:12;6.50;99.90
25092;DHT22;13082;52.374;4.946;2023-02-15T02:14:39;6.60;99.90
25092;DHT22;13082;52.374;4.946;2023-02-15T02:31:29;6.70;99.90
25092;DHT22;13082;52.374;4.946;2023-02-15T02:40:09;6.50;99.90
25092;DHT22;13082;52.374;4.946;2023-02-15T02:42:43;6.50;99.90
25092;DHT22;13082;52.374;4.946;2023-02-15T02:45:19;6.60;99.90
25092;DHT22;13082;52.374;4.946;2023-02-15T02:47:47;6.60;99.90
25092;DHT22;13082;52.374;4.946;2023-02-15T02:50:18;6.60;99.90
25092;DHT22;13082;52.374;4.946;2023-02-15T02:52:49;6.70;99.90
25092;DHT22;13082;52.374;4.946;2023-02-15T03:00:26;6.50;99.90
25092;DHT22;13082;52.374;4.946;2023-02-15T03:03:00;6.50;99.90
25092;DHT22;13082;52.374;4.946;2023-02-15T03:05:30;6.40;99.90
25092;DHT22;13082;52.374;4.946;2023-02-15T03:07:58;6.30;99.90
25092;DHT22;13082;52.374;4.946;2023-02-15T03:10:27;6.10;99.90
25092;DHT22;13082;52.374;4.946;2023-02-15T03:12:54;6.20;99.90
25092;DHT22;13082;52.374;4.946;2023-02-15T03:15:25;6.10;99.90
25092;DHT22;13082;52.374;4.946;2023-02-15T03:17:55;6.10;99.90
25092;DHT22;13082;52.374;4.946;2023-02-15T03:20:33;6.00;99.90
25092;DHT22;13082;52.374;4.946;2023-02-15T03:23:12;6.00;99.90
25092;DHT22;13082;52.374;4.946;2023-02-15T03:25:42;6.00;99.90
25092;DHT22;13082;52.374;4.946;2023-02-15T03:28:12;6.00;99.90
25092;DHT22;13082;52.374;4.946;2023-02-15T03:30:39;6.00;99.90
25092;DHT22;13082;52.374;4.946;2023-02-15T03:33:06;6.00;99.90
25092;DHT22;13082;52.374;4.946;2023-02-15T03:35:54;6.00;99.90
25092;DHT22;13082;52.374;4.946;2023-02-15T03:38:44;6.00;99.90
25092;DHT22;13082;52.374;4.946;2023-02-15T03:41:14;6.00;99.90
25092;DHT22;13082;52.374;4.946;2023-02-15T03:49:04;5.90;99.90
25092;DHT22;13082;52.374;4.946;2023-02-15T03:51:35;5.90;99.90
25092;DHT22;13082;52.374;4.946;2023-02-15T03:59:03;5.70;99.90
25092;DHT22;13082;52.374;4.946;2023-02-15T04:01:54;5.70;99.90
25092;DHT22;13082;52.374;4.946;2023-02-15T04:04:33;5.80;99.90
25092;DHT22;13082;52.374;4.946;2023-02-15T04:07:00;5.80;99.90
25092;DHT22;13082;52.374;4.946;2023-02-15T04:09:26;5.80;99.90
25092;DHT22;13082;52.374;4.946;2023-02-15T04:12:10;5.80;99.90
25092;DHT22;13082;52.374;4.946;2023-02-15T04:14:36;5.70;99.90
25092;DHT22;13082;52.374;4.946;2023-02-15T04:17:20;5.80;99.90
25092;DHT22;13082;52.374;4.946;2023-02-15T04:19:46;5.80;99.90
25092;DHT22;13082;52.374;4.946;2023-02-15T04:22:30;5.80;99.90
25092;DHT22;13082;52.374;4.946;2023-02-15T04:25:14;5.80;99.90
25092;DHT22;13082;52.374;4.946;2023-02-15T04:27:45;5.70;99.90
25092;DHT22;13082;52.374;4.946;2023-02-15T04:30:12;5.70;99.90
25092;DHT22;13082;52.374;4.946;2023-02-15T04:32:38;5.70;99.90
25092;DHT22;13082;52.374;4.946;2023-02-15T04:35:04;5.70;99.90
25092;DHT22;13082;52.374;4.946;2023-02-15T04:37:31;5.70;99.90
25092;DHT22;13082;52.374;4.946;2023-02-15T04:39:57;5.70;99.90
25092;DHT22;13082;52.374;4.946;2023-02-15T04:42:24;5.70;99.90
25092;DHT22;13082;52.374;4.946;2023-02-15T04:44:51;5.70;99.90
25092;DHT22;13082;52.374;4.946;2023-02-15T04:47:16;5.60;99.90
25092;DHT22;13082;52.374;4.946;2023-02-15T04:49:42;5.60;99.90
25092;DHT22;13082;52.374;4.946;2023-02-15T04:52:08;5.60;99.90
25092;DHT22;13082;52.374;4.946;2023-02-15T04:54:33;5.60;99.90
25092;DHT22;13082;52.374;4.946;2023-02-15T04:56:59;5.60;99.90
25092;DHT22;13082;52.374;4.946;2023-02-15T04:59:24;5.60;99.90
25092;DHT22;13082;52.374;4.946;2023-02-15T05:01:50;5.60;99.90
25092;DHT22;13082;52.374;4.946;2023-02-15T05:04:15;5.70;99.90
25092;DHT22;13082;52.374;4.946;2023-02-15T05:06:41;5.70;99.90
25092;DHT22;13082;52.374;4.946;2023-02-15T05:09:07;5.80;99.90
25092;DHT22;13082;52.374;4.946;2023-02-15T05:11:32;5.80;99.90
25092;DHT22;13082;52.374;4.946;2023-02-15T05:13:58;5.80;99.90
25092;DHT22;13082;52.374;4.946;2023-02-15T05:16:24;5.90;99.90
25092;DHT22;13082;52.374;4.946;2023-02-15T05:18:50;5.90;99.90
25092;DHT22;13082;52.374;4.946;2023-02-15T05:21:16;5.90;99.90
25092;DHT22;13082;52.374;4.946;2023-02-15T05:23:42;5.80;99.90
25092;DHT22;13082;52.374;4.946;2023-02-15T05:26:11;5.70;99.90
25092;DHT22;13082;52.374;4.946;2023-02-15T05:28:55;5.60;99.90
25092;DHT22;13082;52.374;4.946;2023-02-15T05:31:21;5.60;99.90
25092;DHT22;13082;52.374;4.946;2023-02-15T05:33:47;5.50;99.90
25092;DHT22;13082;52.374;4.946;2023-02-15T05:36:13;5.50;99.90
25092;DHT22;13082;52.374;4.946;2023-02-15T05:38:39;5.40;99.90
25092;DHT22;13082;52.374;4.946;2023-02-15T05:41:05;5.40;99.90
25092;DHT22;13082;52.374;4.946;2023-02-15T05:43:32;5.40;99.90
25092;DHT22;13082;52.374;4.946;2023-02-15T05:45:58;5.30;99.90
25092;DHT22;13082;52.374;4.946;2023-02-15T05:48:25;5.30;99.90
25092;DHT22;13082;52.374;4.946;2023-02-15T05:51:02;5.30;99.90
25092;DHT22;13082;52.374;4.946;2023-02-15T05:53:30;5.30;99.90
25092;DHT22;13082;52.374;4.946;2023-02-15T05:55:56;5.30;99.90
25092;DHT22;13082;52.374;4.946;2023-02-15T05:58:29;5.30;99.90
25092;DHT22;13082;52.374;4.946;2023-02-15T06:00:55;5.30;99.90
25092;DHT22;13082;52.374;4.946;2023-02-15T06:03:21;5.30;99.90
25092;DHT22;13082;52.374;4.946;2023-02-15T06:05:47;5.40;99.90
25092;DHT22;13082;52.374;4.946;2023-02-15T06:08:13;5.40;99.90
25092;DHT22;13082;52.374;4.946;2023-02-15T06:10:39;5.40;99.90
25092;DHT22;13082;52.374;4.946;2023-02-15T06:13:05;5.40;99.90
25092;DHT22;13082;52.374;4.946;2023-02-15T06:15:31;5.50;99.90
25092;DHT22;13082;52.374;4.946;2023-02-15T06:17:57;5.50;99.90
25092;DHT22;13082;52.374;4.946;2023-02-15T06:20:23;5.60;99.90
25092;DHT22;13082;52.374;4.946;2023-02-15T06:22:48;5.40;99.90
25092;DHT22;13082;52.374;4.946;2023-02-15T06:25:14;5.40;99.90
25092;DHT22;13082;52.374;4.946;2023-02-15T06:27:43;5.30;99.90
25092;DHT22;13082;52.374;4.946;2023-02-15T06:30:09;5.10;99.90
25092;DHT22;13082;52.374;4.946;2023-02-15T06:32:35;5.10;99.90
25092;DHT22;13082;52.374;4.946;2023-02-15T06:35:01;5.10;99.90
25092;DHT22;13082;52.374;4.946;2023-02-15T06:37:27;5.10;99.90
25092;DHT22;13082;52.374;4.946;2023-02-15T06:39:52;5.10;99.90
25092;DHT22;13082;52.374;4.946;2023-02-15T06:42:18;5.10;99.90
25092;DHT22;13082;52.374;4.946;2023-02-15T06:44:44;5.10;99.90
25092;DHT22;13082;52.374;4.946;2023-02-15T06:47:10;5.20;99.90
25092;DHT22;13082;52.374;4.946;2023-02-15T06:49:42;5.20;99.90
25092;DHT22;13082;52.374;4.946;2023-02-15T06:52:08;5.00;99.90
25092;DHT22;13082;52.374;4.946;2023-02-15T06:54:35;5.00;99.90
25092;DHT22;13082;52.374;4.946;2023-02-15T06:57:03;5.00;99.90
25092;DHT22;13082;52.374;4.946;2023-02-15T06:59:29;5.00;99.90
25092;DHT22;13082;52.374;4.946;2023-02-15T07:01:55;5.00;99.90
25092;DHT22;13082;52.374;4.946;2023-02-15T07:04:20;5.10;99.90
25092;DHT22;13082;52.374;4.946;2023-02-15T07:06:46;5.10;99.90
25092;DHT22;13082;52.374;4.946;2023-02-15T07:09:11;5.10;99.90
25092;DHT22;13082;52.374;4.946;2023-02-15T07:11:38;5.20;99.90
25092;DHT22;13082;52.374;4.946;2023-02-15T07:14:22;5.20;99.90
25092;DHT22;13082;52.374;4.946;2023-02-15T07:16:48;5.20;99.90
25092;DHT22;13082;52.374;4.946;2023-02-15T07:19:13;5.20;99.90
25092;DHT22;13082;52.374;4.946;2023-02-15T07:21:39;5.30;99.90
25092;DHT22;13082;52.374;4.946;2023-02-15T07:24:05;5.30;99.90
25092;DHT22;13082;52.374;4.946;2023-02-15T07:26:33;5.30;99.90
25092;DHT22;13082;52.374;4.946;2023-02-15T07:28:59;5.20;99.90
25092;DHT22;13082;52.374;4.946;2023-02-15T07:31:24;5.10;99.90
25092;DHT22;13082;52.374;4.946;2023-02-15T07:33:50;5.10;99.90
25092;DHT22;13082;52.374;4.946;2023-02-15T07:36:15;5.20;99.90
25092;DHT22;13082;52.374;4.946;2023-02-15T07:38:41;5.30;99.90
25092;DHT22;13082;52.374;4.946;2023-02-15T07:41:10;5.40;99.90
25092;DHT22;13082;52.374;4.946;2023-02-15T07:43:39;5.50;99.90
25092;DHT22;13082;52.374;4.946;2023-02-15T07:46:08;5.60;99.90
25092;DHT22;13082;52.374;4.946;2023-02-15T07:48:35;5.60;99.90
25092;DHT22;13082;52.374;4.946;2023-02-15T07:51:02;5.60;99.90
25092;DHT22;13082;52.374;4.946;2023-02-15T07:53:29;5.60;99.90
25092;DHT22;13082;52.374;4.946;2023-02-15T07:56:02;5.60;99.90
25092;DHT22;13082;52.374;4.946;2023-02-15T07:58:28;5.60;99.90
25092;DHT22;13082;52.374;4.946;2023-02-15T08:01:13;5.60;99.90
25092;DHT22;13082;52.374;4.946;2023-02-15T08:03:39;5.60;99.90
25092;DHT22;13082;52.374;4.946;2023-02-15T08:06:05;5.70;99.90
25092;DHT22;13082;52.374;4.946;2023-02-15T08:08:30;5.60;99.90
25092;DHT22;13082;52.374;4.946;2023-02-15T08:13:44;5.60;99.90
25092;DHT22;13082;52.374;4.946;2023-02-15T08:16:42;5.70;99.90
25092;DHT22;13082;52.374;4.946;2023-02-15T08:19:17;5.70;99.90
25092;DHT22;13082;52.374;4.946;2023-02-15T08:21:46;5.80;99.90
25092;DHT22;13082;52.374;4.946;2023-02-15T08:24:13;5.70;99.90
25092;DHT22;13082;52.374;4.946;2023-02-15T08:26:39;5.80;99.90
25092;DHT22;13082;52.374;4.946;2023-02-15T08:29:06;5.90;99.90
25092;DHT22;13082;52.374;4.946;2023-02-15T08:31:34;6.00;99.90
25092;DHT22;13082;52.374;4.946;2023-02-15T08:34:00;6.00;99.90
25092;DHT22;13082;52.374;4.946;2023-02-15T08:36:28;6.10;99.90
25092;DHT22;13082;52.374;4.946;2023-02-15T08:38:57;6.10;99.90
25092;DHT22;13082;52.374;4.946;2023-02-15T08:41:25;6.10;99.90
25092;DHT22;13082;52.374;4.946;2023-02-15T08:43:53;6.20;99.90
25092;DHT22;13082;52.374;4.946;2023-02-15T08:46:20;6.20;99.90
25092;DHT22;13082;52.374;4.946;2023-02-15T08:48:47;6.20;99.90
25092;DHT22;13082;52.374;4.946;2023-02-15T08:53:41;6.30;99.90
25092;DHT22;13082;52.374;4.946;2023-02-15T08:56:07;6.40;99.90
25092;DHT22;13082;52.374;4.946;2023-02-15T08:58:34;6.50;99.90
25092;DHT22;13082;52.374;4.946;2023-02-15T09:01:00;6.50;99.90
25092;DHT22;13082;52.374;4.946;2023-02-15T09:03:27;6.50;99.90
25092;DHT22;13082;52.374;4.946;2023-02-15T09:05:58;6.50;99.90
25092;DHT22;13082;52.374;4.946;2023-02-15T09:08:24;6.50;99.90
25092;DHT22;13082;52.374;4.946;2023-02-15T09:10:50;6.60;99.90
25092;DHT22;13082;52.374;4.946;2023-02-15T09:13:15;6.70;99.90
25092;DHT22;13082;52.374;4.946;2023-02-15T09:15:41;6.80;99.90
25092;DHT22;13082;52.374;4.946;2023-02-15T09:18:06;6.90;99.90
25092;DHT22;13082;52.374;4.946;2023-02-15T09:20:35;7.00;99.90
25092;DHT22;13082;52.374;4.946;2023-02-15T09:23:01;7.00;99.90
25092;DHT22;13082;52.374;4.946;2023-02-15T09:25:27;7.10;99.90
25092;DHT22;13082;52.374;4.946;2023-02-15T09:27:53;7.20;99.90
25092;DHT22;13082;52.374;4.946;2023-02-15T09:30:18;7.30;99.90
25092;DHT22;13082;52.374;4.946;2023-02-15T09:32:45;7.30;99.90
25092;DHT22;13082;52.374;4.946;2023-02-15T09:35:13;7.30;99.90
25092;DHT22;13082;52.374;4.946;2023-02-15T09:37:39;7.30;99.90
25092;DHT22;13082;52.374;4.946;2023-02-15T09:40:05;7.30;99.90
25092;DHT22;13082;52.374;4.946;2023-02-15T09:43:02;7.40;99.90
25092;DHT22;13082;52.374;4.946;2023-02-15T09:45:56;7.40;99.90
25092;DHT22;13082;52.374;4.946;2023-02-15T09:48:41;7.50;99.90
25092;DHT22;13082;52.374;4.946;2023-02-15T10:02:11;7.80;99.90
25092;DHT22;13082;52.374;4.946;2023-02-15T10:17:09;8.40;99.90
25092;DHT22;13082;52.374;4.946;2023-02-15T10:22:26;8.60;99.90
25092;DHT22;13082;52.374;4.946;2023-02-15T10:27:32;8.80;99.90
25092;DHT22;13082;52.374;4.946;2023-02-15T10:32:59;8.90;99.90
25092;DHT22;13082;52.374;4.946;2023-02-15T10:35:55;8.90;99.90
25092;DHT22;13082;52.374;4.946;2023-02-15T10:41:27;9.10;99.90
25092;DHT22;13082;52.374;4.946;2023-02-15T10:44:00;9.10;99.90
25092;DHT22;13082;52.374;4.946;2023-02-15T10:57:46;9.50;99.90
25092;DHT22;13082;52.374;4.946;2023-02-15T11:08:25;9.40;99.90
25092;DHT22;13082;52.374;4.946;2023-02-15T11:10:55;9.40;99.90
25092;DHT22;13082;52.374;4.946;2023-02-15T11:13:25;9.40;99.90
25092;DHT22;13082;52.374;4.946;2023-02-15T11:16:10;9.30;99.90
25092;DHT22;13082;52.374;4.946;2023-02-15T11:18:41;9.30;99.90
25092;DHT22;13082;52.374;4.946;2023-02-15T11:22:12;9.30;99.90
25092;DHT22;13082;52.374;4.946;2023-02-15T11:24:14;9.30;99.90
25092;DHT22;13082;52.374;4.946;2023-02-15T11:29:40;9.40;99.90
25092;DHT22;13082;52.374;4.946;2023-02-15T11:32:23;9.40;99.90
25092;DHT22;13082;52.374;4.946;2023-02-15T11:40:25;9.70;99.90
25092;DHT22;13082;52.374;4.946;2023-02-15T11:42:56;9.80;99.90
25092;DHT22;13082;52.374;4.946;2023-02-15T11:45:30;9.80;99.90
25092;DHT22;13082;52.374;4.946;2023-02-15T11:47:59;9.90;99.90
25092;DHT22;13082;52.374;4.946;2023-02-15T11:50:28;10.00;99.90
25092;DHT22;13082;52.374;4.946;2023-02-15T11:53:03;10.00;99.90
25092;DHT22;13082;52.374;4.946;2023-02-15T11:55:29;10.00;99.90
25092;DHT22;13082;52.374;4.946;2023-02-15T11:58:28;10.00;99.90
25092;DHT22;13082;52.374;4.946;2023-02-15T12:06:34;10.00;99.90
25092;DHT22;13082;52.374;4.946;2023-02-15T12:11:37;9.90;99.90
25092;DHT22;13082;52.374;4.946;2023-02-15T12:14:08;9.80;99.90
25092;DHT22;13082;52.374;4.946;2023-02-15T12:16:47;9.90;99.90
25092;DHT22;13082;52.374;4.946;2023-02-15T12:19:32;9.90;99.90
25092;DHT22;13082;52.374;4.946;2023-02-15T12:22:01;9.90;99.90
25092;DHT22;13082;52.374;4.946;2023-02-15T12:24:30;9.90;99.90
25092;DHT22;13082;52.374;4.946;2023-02-15T12:27:04;9.90;99.90
25092;DHT22;13082;52.374;4.946;2023-02-15T12:29:39;9.90;99.90
25092;DHT22;13082;52.374;4.946;2023-02-15T12:32:11;10.10;99.90
25092;DHT22;13082;52.374;4.946;2023-02-15T12:34:41;10.30;99.90
25092;DHT22;13082;52.374;4.946;2023-02-15T12:37:23;10.40;99.90
25092;DHT22;13082;52.374;4.946;2023-02-15T12:40:01;10.40;99.90
25092;DHT22;13082;52.374;4.946;2023-02-15T12:42:40;10.50;99.90
25092;DHT22;13082;52.374;4.946;2023-02-15T12:45:27;10.60;99.90
25092;DHT22;13082;52.374;4.946;2023-02-15T12:50:39;10.70;99.90
25092;DHT22;13082;52.374;4.946;2023-02-15T12:53:15;10.80;99.90
25092;DHT22;13082;52.374;4.946;2023-02-15T12:55:53;10.90;99.90
25092;DHT22;13082;52.374;4.946;2023-02-15T12:58:24;11.00;99.90
25092;DHT22;13082;52.374;4.946;2023-02-15T13:03:38;11.00;99.90
25092;DHT22;13082;52.374;4.946;2023-02-15T13:06:05;10.90;99.90
25092;DHT22;13082;52.374;4.946;2023-02-15T13:08:39;10.90;99.90
25092;DHT22;13082;52.374;4.946;2023-02-15T13:11:11;10.90;99.90
25092;DHT22;13082;52.374;4.946;2023-02-15T13:13:52;10.90;99.90
25092;DHT22;13082;52.374;4.946;2023-02-15T13:16:31;10.90;99.90
25092;DHT22;13082;52.374;4.946;2023-02-15T13:19:03;10.90;99.90
25092;DHT22;13082;52.374;4.946;2023-02-15T13:21:36;10.90;99.90
25092;DHT22;13082;52.374;4.946;2023-02-15T13:26:49;10.80;99.90
25092;DHT22;13082;52.374;4.946;2023-02-15T13:31:50;10.80;99.90
25092;DHT22;13082;52.374;4.946;2023-02-15T13:34:38;10.80;99.90
25092;DHT22;13082;52.374;4.946;2023-02-15T13:42:56;10.80;99.90
25092;DHT22;13082;52.374;4.946;2023-02-15T13:48:20;10.80;99.90
25092;DHT22;13082;52.374;4.946;2023-02-15T13:53:59;10.70;99.90
25092;DHT22;13082;52.374;4.946;2023-02-15T13:59:27;10.70;99.90
25092;DHT22;13082;52.374;4.946;2023-02-15T14:02:15;10.70;99.90
25092;DHT22;13082;52.374;4.946;2023-02-15T14:12:53;10.80;99.90
25092;DHT22;13082;52.374;4.946;2023-02-15T14:15:47;10.80;99.90
25092;DHT22;13082;52.374;4.946;2023-02-15T14:26:41;10.90;99.90
25092;DHT22;13082;52.374;4.946;2023-02-15T14:29:46;10.90;99.90
25092;DHT22;13082;52.374;4.946;2023-02-15T14:32:35;11.00;99.90
25092;DHT22;13082;52.374;4.946;2023-02-15T14:35:04;11.00;99.90
25092;DHT22;13082;52.374;4.946;2023-02-15T14:37:34;11.00;99.90
25092;DHT22;13082;52.374;4.946;2023-02-15T14:43:24;11.10;99.90
25092;DHT22;13082;52.374;4.946;2023-02-15T14:49:10;11.20;99.90
25092;DHT22;13082;52.374;4.946;2023-02-15T14:57:32;11.30;99.90
25092;DHT22;13082;52.374;4.946;2023-02-15T15:04:39;11.10;99.90
25092;DHT22;13082;52.374;4.946;2023-02-15T15:07:20;11.00;99.90
25092;DHT22;13082;52.374;4.946;2023-02-15T15:09:58;11.00;99.90
25092;DHT22;13082;52.374;4.946;2023-02-15T15:14:54;11.00;99.90
25092;DHT22;13082;52.374;4.946;2023-02-15T15:20:12;11.00;99.90
25092;DHT22;13082;52.374;4.946;2023-02-15T15:22:40;11.00;99.90
25092;DHT22;13082;52.374;4.946;2023-02-15T15:27:49;11.00;99.90
25092;DHT22;13082;52.374;4.946;2023-02-15T15:44:47;10.90;99.90
25092;DHT22;13082;52.374;4.946;2023-02-15T15:49:58;10.80;99.90
25092;DHT22;13082;52.374;4.946;2023-02-15T15:52:26;10.70;99.90
25092;DHT22;13082;52.374;4.946;2023-02-15T15:54:57;10.70;99.90
25092;DHT22;13082;52.374;4.946;2023-02-15T15:59:56;10.70;99.90
25092;DHT22;13082;52.374;4.946;2023-02-15T16:02:25;10.70;99.90
25092;DHT22;13082;52.374;4.946;2023-02-15T16:04:50;10.70;99.90
25092;DHT22;13082;52.374;4.946;2023-02-15T16:09:57;10.70;99.90
25092;DHT22;13082;52.374;4.946;2023-02-15T16:12:25;10.60;99.90
25092;DHT22;13082;52.374;4.946;2023-02-15T16:14:52;10.60;99.90
25092;DHT22;13082;52.374;4.946;2023-02-15T16:17:24;10.60;99.90
25092;DHT22;13082;52.374;4.946;2023-02-15T16:19:51;10.60;99.90
25092;DHT22;13082;52.374;4.946;2023-02-15T16:22:24;10.60;99.90
25092;DHT22;13082;52.374;4.946;2023-02-15T16:27:37;10.50;99.90
25092;DHT22;13082;52.374;4.946;2023-02-15T16:30:23;10.40;99.90
25092;DHT22;13082;52.374;4.946;2023-02-15T16:33:06;10.40;99.90
25092;DHT22;13082;52.374;4.946;2023-02-15T16:35:33;10.40;99.90
25092;DHT22;13082;52.374;4.946;2023-02-15T16:37:59;10.40;99.90
25092;DHT22;13082;52.374;4.946;2023-02-15T16:43:04;10.30;99.90
25092;DHT22;13082;52.374;4.946;2023-02-15T16:45:33;10.30;99.90
25092;DHT22;13082;52.374;4.946;2023-02-15T16:48:07;10.20;99.90
25092;DHT22;13082;52.374;4.946;2023-02-15T16:50:36;10.20;99.90
25092;DHT22;13082;52.374;4.946;2023-02-15T16:53:04;10.20;99.90
25092;DHT22;13082;52.374;4.946;2023-02-15T16:55:39;10.20;99.90
25092;DHT22;13082;52.374;4.946;2023-02-15T16:58:07;10.10;99.90
25092;DHT22;13082;52.374;4.946;2023-02-15T17:00:38;10.10;99.90
25092;DHT22;13082;52.374;4.946;2023-02-15T17:03:08;10.00;99.90
25092;DHT22;13082;52.374;4.946;2023-02-15T17:05:45;9.90;99.90
25092;DHT22;13082;52.374;4.946;2023-02-15T17:08:17;9.90;99.90
25092;DHT22;13082;52.374;4.946;2023-02-15T17:11:33;9.90;99.90
25092;DHT22;13082;52.374;4.946;2023-02-15T17:13:31;9.80;99.90
25092;DHT22;13082;52.374;4.946;2023-02-15T17:20:56;9.80;99.90
25092;DHT22;13082;52.374;4.946;2023-02-15T17:23:34;9.70;99.90
25092;DHT22;13082;52.374;4.946;2023-02-15T17:26:20;9.70;99.90
25092;DHT22;13082;52.374;4.946;2023-02-15T17:28:49;9.70;99.90
25092;DHT22;13082;52.374;4.946;2023-02-15T17:31:20;9.60;99.90
25092;DHT22;13082;52.374;4.946;2023-02-15T17:33:46;9.70;99.90
25092;DHT22;13082;52.374;4.946;2023-02-15T17:36:17;9.60;99.90
25092;DHT22;13082;52.374;4.946;2023-02-15T17:39:21;9.60;99.90
25092;DHT22;13082;52.374;4.946;2023-02-15T17:41:47;9.60;99.90
25092;DHT22;13082;52.374;4.946;2023-02-15T17:44:13;9.50;99.90
25092;DHT22;13082;52.374;4.946;2023-02-15T17:46:41;9.50;99.90
25092;DHT22;13082;52.374;4.946;2023-02-15T17:49:18;9.50;99.90
25092;DHT22;13082;52.374;4.946;2023-02-15T17:51:47;9.40;99.90
25092;DHT22;13082;52.374;4.946;2023-02-15T17:54:12;9.40;99.90
25092;DHT22;13082;52.374;4.946;2023-02-15T17:56:56;9.40;99.90
25092;DHT22;13082;52.374;4.946;2023-02-15T17:59:29;9.40;99.90
25092;DHT22;13082;52.374;4.946;2023-02-15T18:01:55;9.40;99.90
25092;DHT22;13082;52.374;4.946;2023-02-15T18:04:39;9.40;99.90
25092;DHT22;13082;52.374;4.946;2023-02-15T18:07:24;9.50;99.90
25092;DHT22;13082;52.374;4.946;2023-02-15T18:10:18;9.50;99.90
25092;DHT22;13082;52.374;4.946;2023-02-15T18:13:02;9.40;99.90
25092;DHT22;13082;52.374;4.946;2023-02-15T18:15:29;9.50;99.90
25092;DHT22;13082;52.374;4.946;2023-02-15T18:17:54;9.50;99.90
25092;DHT22;13082;52.374;4.946;2023-02-15T18:20:26;9.40;99.90
25092;DHT22;13082;52.374;4.946;2023-02-15T18:22:53;9.40;99.90
25092;DHT22;13082;52.374;4.946;2023-02-15T18:25:21;9.40;99.90
25092;DHT22;13082;52.374;4.946;2023-02-15T18:27:48;9.40;99.90
25092;DHT22;13082;52.374;4.946;2023-02-15T18:30:16;9.40;99.90
25092;DHT22;13082;52.374;4.946;2023-02-15T18:32:42;9.50;99.90
25092;DHT22;13082;52.374;4.946;2023-02-15T18:35:15;9.50;99.90
25092;DHT22;13082;52.374;4.946;2023-02-15T18:37:41;9.50;99.90
25092;DHT22;13082;52.374;4.946;2023-02-15T18:40:17;9.50;99.90
25092;DHT22;13082;52.374;4.946;2023-02-15T18:42:43;9.50;99.90
25092;DHT22;13082;52.374;4.946;2023-02-15T18:47:39;9.50;99.90
25092;DHT22;13082;52.374;4.946;2023-02-15T18:50:05;9.50;99.90
25092;DHT22;13082;52.374;4.946;2023-02-15T18:52:33;9.50;99.90
25092;DHT22;13082;52.374;4.946;2023-02-15T18:55:03;9.60;99.90
25092;DHT22;13082;52.374;4.946;2023-02-15T18:57:31;9.60;99.90
25092;DHT22;13082;52.374;4.946;2023-02-15T18:59:57;9.60;99.90
25092;DHT22;13082;52.374;4.946;2023-02-15T19:02:22;9.60;99.90
25092;DHT22;13082;52.374;4.946;2023-02-15T19:04:48;9.50;99.90
25092;DHT22;13082;52.374;4.946;2023-02-15T19:07:22;9.50;99.90
25092;DHT22;13082;52.374;4.946;2023-02-15T19:09:51;9.50;99.90
25092;DHT22;13082;52.374;4.946;2023-02-15T19:12:19;9.50;99.90
25092;DHT22;13082;52.374;4.946;2023-02-15T19:14:44;9.50;99.90
25092;DHT22;13082;52.374;4.946;2023-02-15T19:17:15;9.50;99.90
25092;DHT22;13082;52.374;4.946;2023-02-15T19:19:42;9.50;99.90
25092;DHT22;13082;52.374;4.946;2023-02-15T19:22:19;9.50;99.90
25092;DHT22;13082;52.374;4.946;2023-02-15T19:24:46;9.50;99.90
25092;DHT22;13082;52.374;4.946;2023-02-15T19:27:32;9.40;99.90
25092;DHT22;13082;52.374;4.946;2023-02-15T19:30:13;9.40;99.90
25092;DHT22;13082;52.374;4.946;2023-02-15T19:32:39;9.40;99.90
25092;DHT22;13082;52.374;4.946;2023-02-15T19:35:05;9.30;99.90
25092;DHT22;13082;52.374;4.946;2023-02-15T19:37:35;9.40;99.90